Time;durP1;ratioP1;P1;durP2;ratioP2;P2;SDS_P1;SDS_P2;PMS_P1;PMS_P2;Temp;Humidity;BMP_temperature;BMP_pressure;BME280_temperature;BME280_humidity;BME280_pressure;Samples;Min_cycle;Max_cycle;Signal;HPM_P1;HPM_P2
2023/06/07 00:02:15;;;;;;;17.83;5.97;;;10.90;99.90;;;;;;5041741;28;20200;-65
2023/06/07 00:04:41;;;;;;;11.00;4.60;;;10.80;99.90;;;;;;5051046;28;20204;-64
2023/06/07 00:07:10;;;;;;;8.93;5.30;;;10.80;99.90;;;;;;5063130;28;20207;-65
2023/06/07 00:09:37;;;;;;;12.88;5.05;;;10.80;99.90;;;;;;5039932;28;20395;-64
2023/06/07 00:12:06;;;;;;;6.78;4.63;;;10.80;99.90;;;;;;5054390;28;20820;-64
2023/06/07 00:14:33;;;;;;;9.02;4.90;;;10.80;99.90;;;;;;5037865;28;20204;-64
2023/06/07 00:17:00;;;;;;;7.93;4.93;;;10.90;99.90;;;;;;5062977;28;20227;-64
2023/06/07 00:19:27;;;;;;;8.07;4.68;;;10.90;99.90;;;;;;5039537;28;20431;-64
2023/06/07 00:21:55;;;;;;;8.98;4.18;;;10.80;99.90;;;;;;5064255;28;20287;-64
2023/06/07 00:24:22;;;;;;;8.25;5.05;;;10.80;99.90;;;;;;5043122;28;20670;-64
2023/06/07 00:26:49;;;;;;;8.68;4.68;;;10.80;99.90;;;;;;5043194;28;20196;-64
2023/06/07 00:29:17;;;;;;;8.82;5.03;;;10.80;99.90;;;;;;5035155;28;21087;-64
2023/06/07 00:31:44;;;;;;;8.70;4.20;;;10.80;99.90;;;;;;5067032;28;20200;-64
2023/06/07 00:34:11;;;;;;;11.35;5.00;;;10.70;99.90;;;;;;5051638;28;20224;-64
2023/06/07 00:36:38;;;;;;;9.25;5.00;;;10.60;99.90;;;;;;5059470;28;20203;-64
2023/06/07 00:39:05;;;;;;;9.73;4.50;;;10.60;99.90;;;;;;5049712;28;20228;-65
2023/06/07 00:41:32;;;;;;;7.32;5.03;;;10.60;99.90;;;;;;5051857;28;20208;-64
2023/06/07 00:44:01;;;;;;;8.10;5.05;;;10.60;99.90;;;;;;5035943;28;20207;-64
2023/06/07 00:46:31;;;;;;;9.23;4.85;;;10.60;99.90;;;;;;5063967;28;20208;-64
2023/06/07 00:48:59;;;;;;;11.32;5.47;;;10.60;99.90;;;;;;5062864;28;20200;-65
2023/06/07 00:51:28;;;;;;;9.43;4.90;;;10.70;99.90;;;;;;5044932;28;20208;-64
2023/06/07 00:53:58;;;;;;;12.75;5.50;;;10.70;99.90;;;;;;5064156;28;20219;-64
2023/06/07 00:56:26;;;;;;;7.07;4.60;;;10.70;99.90;;;;;;5030326;28;20261;-64
2023/06/07 00:58:53;;;;;;;6.22;4.60;;;10.70;99.90;;;;;;5060995;28;20312;-64
2023/06/07 01:01:20;;;;;;;11.55;6.07;;;10.60;99.90;;;;;;5032540;28;21378;-64
2023/06/07 01:03:48;;;;;;;10.57;5.28;;;10.70;99.90;;;;;;5063227;28;20201;-64
2023/06/07 01:06:15;;;;;;;12.98;4.80;;;10.80;99.90;;;;;;5048482;28;20227;-65
2023/06/07 01:08:43;;;;;;;12.75;4.88;;;10.80;99.90;;;;;;5064191;28;20849;-64
2023/06/07 01:11:11;;;;;;;10.18;5.35;;;10.80;99.90;;;;;;5045893;28;20204;-64
2023/06/07 01:13:39;;;;;;;8.93;4.80;;;10.80;99.90;;;;;;5049793;28;20230;-64
2023/06/07 01:16:07;;;;;;;9.68;5.80;;;10.60;99.90;;;;;;5028152;28;20499;-64
2023/06/07 01:18:34;;;;;;;12.07;5.20;;;10.60;99.90;;;;;;5057226;28;20234;-64
2023/06/07 01:21:05;;;;;;;9.25;5.60;;;10.50;99.90;;;;;;5051087;28;20296;-64
2023/06/07 01:23:34;;;;;;;8.93;5.85;;;10.50;99.90;;;;;;5061772;28;20756;-64
2023/06/07 01:26:03;;;;;;;9.32;5.88;;;10.50;99.90;;;;;;5063942;28;20200;-64
2023/06/07 01:28:33;;;;;;;8.13;5.20;;;10.40;99.90;;;;;;5027842;28;20305;-64
2023/06/07 01:31:01;;;;;;;11.77;4.60;;;10.40;99.90;;;;;;5064702;28;20257;-64
2023/06/07 01:33:29;;;;;;;7.13;5.15;;;10.40;99.90;;;;;;5026835;28;20434;-64
2023/06/07 01:35:58;;;;;;;7.65;4.95;;;10.50;99.90;;;;;;5064552;28;20228;-65
2023/06/07 01:38:27;;;;;;;12.85;5.70;;;10.50;99.90;;;;;;5048047;28;20224;-64
2023/06/07 01:40:56;;;;;;;8.43;5.40;;;10.40;99.90;;;;;;5062225;28;20203;-64
2023/06/07 01:43:24;;;;;;;12.32;5.25;;;10.50;99.90;;;;;;5025723;28;20203;-64
2023/06/07 01:45:52;;;;;;;11.07;4.97;;;10.50;99.90;;;;;;5064571;28;20220;-64
2023/06/07 01:48:19;;;;;;;9.57;5.05;;;10.60;99.90;;;;;;5035782;28;20196;-65
2023/06/07 01:50:46;;;;;;;11.60;5.32;;;10.60;99.90;;;;;;5071249;28;20611;-65
2023/06/07 01:53:13;;;;;;;10.90;4.95;;;10.40;99.90;;;;;;5047084;28;20711;-64
2023/06/07 01:55:40;;;;;;;11.15;4.20;;;10.30;99.90;;;;;;5062940;28;20189;-64
2023/06/07 01:58:20;;;;;;;6.63;4.07;;;10.10;99.90;;;;;;5040553;28;20231;-64
2023/06/07 02:00:54;;;;;;;10.43;4.70;;;10.00;99.90;;;;;;5031709;28;20745;-64
2023/06/07 02:03:30;;;;;;;4.32;3.65;;;10.00;99.90;;;;;;5033484;28;20678;-64
2023/06/07 02:06:02;;;;;;;3.90;2.78;;;9.90;99.90;;;;;;5053792;28;20282;-64
2023/06/07 02:08:32;;;;;;;5.97;3.13;;;9.60;99.90;;;;;;5051173;28;20576;-64
2023/06/07 02:11:00;;;;;;;3.72;2.33;;;9.50;99.90;;;;;;5058990;28;20280;-64
2023/06/07 02:13:30;;;;;;;5.95;3.17;;;9.50;99.90;;;;;;5045800;28;20211;-64
2023/06/07 02:15:57;;;;;;;4.28;2.40;;;9.50;99.90;;;;;;5048220;28;20504;-65
2023/06/07 02:18:24;;;;;;;3.85;2.22;;;9.60;99.90;;;;;;5035973;28;20224;-64
2023/06/07 02:20:51;;;;;;;5.57;2.45;;;9.50;99.90;;;;;;5050758;28;20425;-64
2023/06/07 02:23:18;;;;;;;3.30;2.47;;;9.40;99.90;;;;;;5048908;28;20212;-64
2023/06/07 02:25:45;;;;;;;2.72;2.30;;;9.40;99.90;;;;;;5059900;28;20192;-64
2023/06/07 02:28:12;;;;;;;4.55;2.83;;;9.40;99.90;;;;;;5034902;28;21115;-64
2023/06/07 02:30:40;;;;;;;3.58;2.28;;;9.40;99.90;;;;;;5044917;28;20196;-64
2023/06/07 02:33:13;;;;;;;5.15;2.50;;;9.40;99.90;;;;;;5022851;28;20537;-64
2023/06/07 02:35:41;;;;;;;3.03;2.40;;;9.50;99.90;;;;;;5041267;28;20885;-64
2023/06/07 02:38:08;;;;;;;5.82;4.07;;;9.50;99.90;;;;;;5036919;28;20596;-64
2023/06/07 02:40:35;;;;;;;8.60;6.40;;;9.40;99.90;;;;;;5059982;28;20207;-64
2023/06/07 02:43:02;;;;;;;8.90;7.65;;;9.30;99.90;;;;;;5047329;28;20227;-64
2023/06/07 02:45:29;;;;;;;6.13;5.53;;;9.20;99.90;;;;;;5059164;28;20719;-64
2023/06/07 02:47:57;;;;;;;6.68;6.03;;;9.30;99.90;;;;;;5031607;28;20208;-64
2023/06/07 02:50:24;;;;;;;4.22;3.80;;;9.40;99.90;;;;;;5046785;28;20215;-64
2023/06/07 02:52:51;;;;;;;4.28;2.88;;;9.40;99.90;;;;;;5047008;28;20215;-65
2023/06/07 02:55:19;;;;;;;2.72;2.35;;;9.60;99.90;;;;;;5051287;28;20377;-64
2023/06/07 02:57:45;;;;;;;3.42;2.67;;;9.60;99.90;;;;;;5062864;28;20204;-65
2023/06/07 03:00:13;;;;;;;2.40;2.17;;;9.60;99.90;;;;;;5044310;28;20425;-64
2023/06/07 03:02:40;;;;;;;3.70;2.40;;;9.60;99.90;;;;;;5041562;28;20193;-64
2023/06/07 03:05:09;;;;;;;2.47;2.28;;;9.50;99.90;;;;;;5031469;28;20208;-64
2023/06/07 03:07:36;;;;;;;2.72;2.20;;;9.40;99.90;;;;;;5043548;28;20200;-64
2023/06/07 03:10:03;;;;;;;2.25;2.05;;;9.40;99.90;;;;;;5045700;28;20590;-65
2023/06/07 03:12:30;;;;;;;2.95;2.67;;;9.50;99.90;;;;;;5058538;28;20657;-64
2023/06/07 03:14:56;;;;;;;6.15;4.95;;;9.40;99.90;;;;;;5031640;28;20572;-64
2023/06/07 03:17:23;;;;;;;7.95;6.65;;;9.40;99.90;;;;;;5049119;28;20200;-64
2023/06/07 03:19:50;;;;;;;4.78;4.38;;;9.40;99.90;;;;;;5027920;28;20720;-64
2023/06/07 03:22:21;;;;;;;4.75;4.35;;;9.50;99.90;;;;;;5050741;28;20197;-64
2023/06/07 03:24:49;;;;;;;4.68;4.15;;;9.60;99.90;;;;;;5048572;28;20300;-64
2023/06/07 03:27:17;;;;;;;12.38;3.92;;;9.60;99.90;;;;;;5060399;28;20193;-64
2023/06/07 03:29:44;;;;;;;5.30;3.05;;;9.60;99.90;;;;;;5045514;28;20829;-64
2023/06/07 03:32:11;;;;;;;8.90;4.68;;;9.50;99.90;;;;;;5043789;28;20215;-64
2023/06/07 03:34:41;;;;;;;6.75;4.93;;;9.40;99.90;;;;;;5043953;28;20225;-64
2023/06/07 03:37:08;;;;;;;10.90;3.67;;;9.40;99.90;;;;;;5020967;28;20405;-64
2023/06/07 03:39:36;;;;;;;5.40;3.42;;;9.40;99.90;;;;;;5046622;28;20420;-64
2023/06/07 03:42:03;;;;;;;3.30;3.00;;;9.30;99.90;;;;;;5060868;28;20200;-64
2023/06/07 03:44:30;;;;;;;4.00;3.60;;;9.30;99.90;;;;;;5044735;28;20227;-64
2023/06/07 03:46:57;;;;;;;3.83;3.22;;;9.40;99.90;;;;;;5048904;28;20208;-64
2023/06/07 03:49:24;;;;;;;3.83;2.97;;;9.50;99.90;;;;;;5031826;28;20231;-64
2023/06/07 03:51:51;;;;;;;3.03;2.72;;;9.60;99.90;;;;;;5022166;28;20244;-64
2023/06/07 03:54:17;;;;;;;3.15;2.80;;;9.70;99.90;;;;;;5052508;28;20215;-64
2023/06/07 03:56:46;;;;;;;3.92;3.03;;;9.70;99.90;;;;;;5039200;28;20725;-64
2023/06/07 03:59:13;;;;;;;2.88;2.65;;;9.70;99.90;;;;;;5051818;28;20231;-64
2023/06/07 04:01:40;;;;;;;4.15;2.70;;;9.70;99.90;;;;;;5044472;28;20212;-64
2023/06/07 04:04:06;;;;;;;2.47;2.28;;;9.70;99.90;;;;;;5048141;28;20209;-64
2023/06/07 04:06:34;;;;;;;2.28;2.08;;;9.70;99.90;;;;;;5045653;28;20311;-64
2023/06/07 04:09:02;;;;;;;3.35;2.58;;;9.90;99.90;;;;;;5027680;28;20200;-64
2023/06/07 04:11:29;;;;;;;2.35;2.15;;;9.90;99.90;;;;;;5040832;28;21172;-64
2023/06/07 04:13:57;;;;;;;3.28;2.47;;;9.90;99.90;;;;;;5057223;28;21020;-64
2023/06/07 04:16:24;;;;;;;2.85;2.58;;;9.90;99.90;;;;;;5037712;28;20219;-64
2023/06/07 04:18:51;;;;;;;2.63;2.25;;;9.80;99.90;;;;;;5050474;28;20227;-64
2023/06/07 04:21:18;;;;;;;2.53;2.30;;;9.80;99.90;;;;;;5045997;28;20329;-65
2023/06/07 04:23:44;;;;;;;3.90;2.50;;;9.80;99.90;;;;;;5030221;28;20843;-64
2023/06/07 04:26:11;;;;;;;3.45;2.50;;;9.90;99.90;;;;;;5045909;28;20761;-64
2023/06/07 04:28:41;;;;;;;2.72;2.22;;;9.90;99.90;;;;;;5045485;28;20227;-64
2023/06/07 04:31:12;;;;;;;2.45;2.13;;;9.90;99.90;;;;;;5060576;28;20203;-64
2023/06/07 04:33:40;;;;;;;2.78;2.35;;;10.00;99.90;;;;;;5037108;28;20364;-64
2023/06/07 04:36:08;;;;;;;2.58;2.25;;;10.10;99.90;;;;;;5050670;28;20240;-64
2023/06/07 04:38:35;;;;;;;3.50;2.30;;;10.10;99.90;;;;;;5027995;28;20239;-64
2023/06/07 04:41:06;;;;;;;4.43;3.10;;;10.10;99.90;;;;;;5030797;28;20216;-64
2023/06/07 04:43:35;;;;;;;6.72;3.58;;;10.20;99.90;;;;;;5039779;28;20213;-64
2023/06/07 04:46:02;;;;;;;8.52;4.10;;;10.30;99.90;;;;;;5058474;28;20220;-64
2023/06/07 04:48:31;;;;;;;8.77;3.72;;;10.30;99.90;;;;;;5030239;28;20204;-64
2023/06/07 04:51:03;;;;;;;12.63;4.13;;;10.40;99.90;;;;;;5061900;28;20291;-64
2023/06/07 04:53:34;;;;;;;5.70;3.40;;;10.50;99.90;;;;;;5043220;28;20205;-64
2023/06/07 04:56:01;;;;;;;7.18;3.47;;;10.60;99.90;;;;;;5009969;28;20621;-64
2023/06/07 04:58:28;;;;;;;7.07;3.75;;;10.70;99.90;;;;;;5007536;28;21715;-64
2023/06/07 05:00:56;;;;;;;10.70;3.65;;;10.80;99.90;;;;;;5044704;28;20219;-64
2023/06/07 05:03:24;;;;;;;14.25;4.55;;;10.90;99.90;;;;;;5040984;28;20274;-64
2023/06/07 05:05:53;;;;;;;10.52;4.38;;;11.00;99.90;;;;;;5062271;28;20264;-64
2023/06/07 05:08:20;;;;;;;13.20;4.53;;;11.10;99.90;;;;;;5048497;28;20220;-64
2023/06/07 05:10:47;;;;;;;19.48;4.82;;;11.20;99.90;;;;;;5035392;28;20310;-64
2023/06/07 05:13:14;;;;;;;14.38;4.65;;;11.30;99.90;;;;;;5060975;28;20201;-64
2023/06/07 05:15:40;;;;;;;11.82;4.03;;;11.30;99.90;;;;;;5043889;28;20558;-64
2023/06/07 05:18:09;;;;;;;11.18;4.35;;;11.50;99.90;;;;;;5048386;28;20200;-64
2023/06/07 05:20:36;;;;;;;10.50;3.88;;;11.50;99.90;;;;;;5057328;28;20224;-64
2023/06/07 05:23:04;;;;;;;14.38;4.53;;;11.60;99.90;;;;;;5042057;28;20227;-64
2023/06/07 05:25:32;;;;;;;13.43;4.32;;;11.60;99.90;;;;;;5027532;28;20337;-65
2023/06/07 05:27:58;;;;;;;10.65;3.95;;;11.70;99.90;;;;;;5061716;28;20242;-65
2023/06/07 05:30:25;;;;;;;15.48;4.18;;;11.80;99.90;;;;;;5048908;28;20239;-64
2023/06/07 05:32:52;;;;;;;16.00;4.45;;;11.90;99.90;;;;;;5046694;28;20200;-65
2023/06/07 05:35:19;;;;;;;15.65;5.15;;;11.90;99.90;;;;;;5047369;28;20685;-65
2023/06/07 05:37:47;;;;;;;14.55;4.78;;;12.00;99.90;;;;;;5064078;28;20200;-65
2023/06/07 05:40:18;;;;;;;16.52;4.65;;;12.00;99.90;;;;;;5052539;28;20779;-64
2023/06/07 05:42:45;;;;;;;21.17;4.75;;;12.10;99.90;;;;;;5038280;28;20312;-65
2023/06/07 05:45:12;;;;;;;10.15;4.30;;;12.10;99.90;;;;;;5048989;28;20200;-65
2023/06/07 05:47:38;;;;;;;11.82;4.40;;;12.20;99.90;;;;;;5065192;28;20322;-65
2023/06/07 05:50:06;;;;;;;10.65;4.30;;;12.30;99.90;;;;;;5053459;28;20207;-65
2023/06/07 05:52:32;;;;;;;17.92;4.80;;;12.40;99.90;;;;;;5063513;28;20192;-65
2023/06/07 05:55:00;;;;;;;11.65;4.30;;;12.50;99.90;;;;;;5051648;28;20207;-65
2023/06/07 05:57:29;;;;;;;17.88;5.93;;;12.50;99.90;;;;;;5030742;28;20681;-65
2023/06/07 05:59:56;;;;;;;13.77;5.07;;;12.50;99.90;;;;;;5052807;28;20224;-65
2023/06/07 06:02:24;;;;;;;14.45;6.10;;;12.50;99.90;;;;;;5048290;28;20992;-65
2023/06/07 06:04:52;;;;;;;22.58;5.75;;;12.50;99.90;;;;;;5033273;28;20200;-64
2023/06/07 06:07:19;;;;;;;11.48;5.55;;;12.50;99.90;;;;;;5031683;28;20696;-65
2023/06/07 06:09:46;;;;;;;16.00;5.90;;;12.50;99.90;;;;;;5044048;28;20212;-65
2023/06/07 06:12:13;;;;;;;13.65;4.55;;;12.50;99.90;;;;;;5028114;28;20212;-65
2023/06/07 06:14:41;;;;;;;7.75;4.30;;;12.50;99.90;;;;;;5037635;28;20224;-65
2023/06/07 06:17:08;;;;;;;11.95;4.35;;;12.50;99.90;;;;;;5042344;28;20231;-64
2023/06/07 06:19:35;;;;;;;12.55;5.03;;;12.40;99.90;;;;;;5038712;28;20234;-64
2023/06/07 06:22:02;;;;;;;13.63;5.47;;;12.50;99.90;;;;;;5030042;28;20712;-65
2023/06/07 06:24:29;;;;;;;10.05;5.18;;;12.50;99.90;;;;;;5037173;28;20644;-64
2023/06/07 06:26:56;;;;;;;9.70;4.45;;;12.60;99.90;;;;;;5020182;28;20224;-65
2023/06/07 06:29:23;;;;;;;15.85;4.90;;;12.60;99.90;;;;;;5058975;28;20311;-64
2023/06/07 06:31:51;;;;;;;19.77;4.60;;;12.70;99.90;;;;;;5049669;28;20309;-65
2023/06/07 06:34:18;;;;;;;12.75;4.43;;;12.70;99.90;;;;;;5041087;28;20326;-65
2023/06/07 06:36:46;;;;;;;11.48;4.47;;;12.80;99.90;;;;;;5059943;28;20214;-65
2023/06/07 06:39:14;;;;;;;19.25;5.43;;;12.80;99.90;;;;;;5047230;28;20698;-65
2023/06/07 06:41:40;;;;;;;15.35;5.40;;;12.90;99.90;;;;;;5049387;28;20228;-65
2023/06/07 06:44:07;;;;;;;12.02;5.07;;;12.90;99.90;;;;;;5029220;28;20858;-65
2023/06/07 06:46:35;;;;;;;11.68;4.95;;;13.10;99.90;;;;;;5056551;28;20425;-65
2023/06/07 06:49:03;;;;;;;7.63;4.00;;;13.10;99.90;;;;;;5058001;28;20220;-65
2023/06/07 06:51:30;;;;;;;12.57;3.80;;;13.10;99.90;;;;;;5053379;28;20357;-65
2023/06/07 06:53:56;;;;;;;13.18;3.80;;;13.20;99.90;;;;;;5062922;28;20227;-65
2023/06/07 06:56:23;;;;;;;8.80;3.53;;;13.30;99.90;;;;;;5046859;28;20220;-65
2023/06/07 06:58:50;;;;;;;9.68;3.30;;;13.40;99.10;;;;;;5037156;28;20306;-65
2023/06/07 07:01:18;;;;;;;11.27;3.78;;;13.50;97.10;;;;;;5048648;28;20368;-65
2023/06/07 07:03:45;;;;;;;12.80;3.33;;;13.50;96.40;;;;;;5063220;28;20220;-65
2023/06/07 07:06:13;;;;;;;8.70;3.20;;;13.60;95.70;;;;;;5044464;28;20499;-65
2023/06/07 07:08:41;;;;;;;10.30;3.90;;;13.70;93.50;;;;;;5061585;28;20220;-65
2023/06/07 07:11:08;;;;;;;7.43;2.72;;;13.70;92.30;;;;;;5045798;28;20211;-65
2023/06/07 07:13:35;;;;;;;8.52;2.88;;;13.80;91.00;;;;;;5034928;28;20721;-65
2023/06/07 07:16:02;;;;;;;11.02;3.72;;;13.70;74.80;;;;;;5057438;28;20277;-65
2023/06/07 07:18:28;;;;;;;9.57;2.97;;;13.80;77.60;;;;;;5063034;28;20285;-65
2023/06/07 07:20:55;;;;;;;9.77;3.38;;;13.80;59.10;;;;;;5051892;28;20667;-64
2023/06/07 07:23:23;;;;;;;8.50;3.00;;;13.70;57.00;;;;;;5060446;28;20219;-65
2023/06/07 07:25:50;;;;;;;8.57;3.22;;;13.80;64.90;;;;;;5062807;28;20662;-65
2023/06/07 07:28:17;;;;;;;12.73;4.72;;;13.80;53.30;;;;;;5045370;28;20296;-65
2023/06/07 07:30:44;;;;;;;7.55;2.55;;;13.90;55.90;;;;;;5035010;28;20297;-65
2023/06/07 07:33:12;;;;;;;8.65;2.88;;;13.90;61.00;;;;;;5043342;28;20204;-65
2023/06/07 07:35:38;;;;;;;9.38;3.05;;;14.00;61.30;;;;;;5063570;28;20232;-65
2023/06/07 07:38:06;;;;;;;11.20;2.88;;;14.10;60.60;;;;;;5045255;28;20236;-65
2023/06/07 07:40:34;;;;;;;10.68;3.17;;;14.10;57.60;;;;;;5064561;28;20219;-65
2023/06/07 07:43:01;;;;;;;10.20;3.05;;;14.20;51.30;;;;;;5046282;28;20208;-65
2023/06/07 07:45:28;;;;;;;8.63;3.30;;;14.10;35.70;;;;;;5039100;28;20943;-65
2023/06/07 07:47:55;;;;;;;12.98;3.05;;;14.00;32.10;;;;;;5047725;28;20305;-65
2023/06/07 07:50:21;;;;;;;9.35;3.00;;;14.10;29.20;;;;;;5064558;28;20514;-65
2023/06/07 07:52:48;;;;;;;7.68;3.13;;;14.20;41.20;;;;;;5053503;28;20208;-65
2023/06/07 07:55:15;;;;;;;8.45;3.58;;;14.20;41.40;;;;;;5059513;28;20655;-65
2023/06/07 07:57:43;;;;;;;13.10;3.42;;;14.30;45.40;;;;;;5049453;28;20227;-65
2023/06/07 08:00:12;;;;;;;12.13;3.60;;;14.40;43.20;;;;;;5062810;28;20273;-65
2023/06/07 08:02:38;;;;;;;7.15;3.70;;;14.40;36.00;;;;;;5037248;28;20286;-65
2023/06/07 08:05:06;;;;;;;9.32;3.55;;;14.40;24.20;;;;;;5054412;28;20212;-65
2023/06/07 08:07:33;;;;;;;8.32;2.72;;;14.40;25.00;;;;;;5051509;28;20307;-65
2023/06/07 08:10:00;;;;;;;9.57;3.35;;;14.50;21.10;;;;;;5057042;28;21029;-65
2023/06/07 08:12:27;;;;;;;7.68;2.92;;;14.40;25.40;;;;;;5051850;28;20845;-64
2023/06/07 08:14:55;;;;;;;10.10;3.22;;;14.50;22.40;;;;;;5064074;28;20197;-65
2023/06/07 08:17:22;;;;;;;11.43;3.55;;;14.50;20.70;;;;;;5031945;28;21028;-65
2023/06/07 08:19:49;;;;;;;9.38;3.20;;;14.60;14.20;;;;;;5052018;28;20768;-65
2023/06/07 08:22:16;;;;;;;9.25;3.50;;;14.70;12.70;;;;;;5043283;28;20261;-65
2023/06/07 08:24:43;;;;;;;9.05;3.47;;;14.70;12.70;;;;;;5068202;28;20606;-65
2023/06/07 08:27:10;;;;;;;11.95;3.45;;;14.80;1.00;;;;;;5046386;28;20944;-65
2023/06/07 08:29:37;;;;;;;11.60;4.15;;;14.90;10.30;;;;;;5061540;28;20657;-65
2023/06/07 08:32:06;;;;;;;11.95;2.88;;;14.90;8.50;;;;;;5035193;28;20310;-65
2023/06/07 08:34:32;;;;;;;8.90;3.47;;;14.90;4.70;;;;;;5036922;28;20247;-65
2023/06/07 08:37:00;;;;;;;9.60;3.33;;;14.90;2.50;;;;;;5058943;28;20224;-65
2023/06/07 08:39:27;;;;;;;12.02;3.30;;;15.00;8.10;;;;;;5020511;28;20196;-65
2023/06/07 08:41:54;;;;;;;12.43;3.22;;;15.00;4.30;;;;;;5059534;28;20232;-65
2023/06/07 08:44:21;;;;;;;12.60;3.70;;;15.10;4.60;;;;;;5051011;28;20311;-65
2023/06/07 08:46:49;;;;;;;7.82;3.88;;;15.10;1.00;;;;;;5064472;28;20390;-65
2023/06/07 08:49:17;;;;;;;8.63;3.53;;;15.10;1.00;;;;;;5035594;28;20291;-65
2023/06/07 08:51:47;;;;;;;5.30;2.83;;;15.20;1.00;;;;;;5065376;28;20251;-65
2023/06/07 08:54:19;;;;;;;7.45;2.90;;;15.30;1.00;;;;;;5052852;28;20766;-65
2023/06/07 08:56:47;;;;;;;8.82;2.67;;;15.30;1.00;;;;;;5053382;28;20559;-65
2023/06/07 08:59:16;;;;;;;8.95;3.15;;;15.30;1.00;;;;;;5052668;28;20232;-65
2023/06/07 09:01:44;;;;;;;8.65;3.10;;;15.30;1.00;;;;;;5066067;28;20369;-65
2023/06/07 09:04:12;;;;;;;9.32;3.40;;;15.40;1.00;;;;;;5039239;28;20221;-65
2023/06/07 09:06:40;;;;;;;10.68;3.42;;;15.50;1.00;;;;;;5058631;28;20447;-65
2023/06/07 09:09:07;;;;;;;8.13;3.30;;;15.60;1.00;;;;;;5055765;28;20354;-65
2023/06/07 09:11:34;;;;;;;6.57;3.20;;;15.70;1.00;;;;;;5046628;28;20602;-65
2023/06/07 09:14:01;;;;;;;7.32;3.20;;;15.60;1.00;;;;;;5050302;28;20205;-65
2023/06/07 09:16:28;;;;;;;8.10;2.97;;;15.60;1.00;;;;;;5064729;28;20197;-65
2023/06/07 09:18:56;;;;;;;16.15;4.20;;;15.80;1.00;;;;;;5036557;28;20318;-65
2023/06/07 09:21:24;;;;;;;8.35;3.20;;;15.90;1.00;;;;;;5064096;28;20230;-65
2023/06/07 09:23:53;;;;;;;17.58;4.47;;;16.00;1.00;;;;;;5063743;28;20210;-65
2023/06/07 09:26:22;;;;;;;14.18;3.38;;;16.20;1.00;;;;;;5040299;28;20349;-65
2023/06/07 09:28:49;;;;;;;10.80;3.70;;;16.10;1.00;;;;;;5055773;28;21041;-65
2023/06/07 09:31:29;;;;;;;12.95;3.78;;;16.20;1.00;;;;;;5061168;28;20196;-65
2023/06/07 09:33:57;;;;;;;6.85;3.13;;;16.20;99.90;;;;;;5065885;28;20564;-65
2023/06/07 09:36:24;;;;;;;11.20;4.10;;;16.20;99.90;;;;;;5037955;28;20314;-65
2023/06/07 09:38:52;;;;;;;12.80;3.67;;;16.20;99.90;;;;;;5066139;28;20266;-65
2023/06/07 09:41:19;;;;;;;8.18;3.92;;;16.30;1.00;;;;;;5048490;28;20318;-65
2023/06/07 09:43:47;;;;;;;4.45;2.75;;;16.30;99.90;;;;;;5059003;28;20399;-65
2023/06/07 09:46:15;;;;;;;6.63;3.13;;;16.40;99.90;;;;;;5049767;28;20699;-65
2023/06/07 09:48:46;;;;;;;10.50;3.67;;;16.40;99.90;;;;;;5062798;28;20192;-65
2023/06/07 09:51:13;;;;;;;8.57;3.33;;;16.50;99.90;;;;;;5033561;28;20417;-65
2023/06/07 09:53:55;;;;;;;11.88;3.30;;;16.70;99.90;;;;;;5060725;28;20991;-65
2023/06/07 09:56:23;;;;;;;7.68;3.42;;;16.70;99.90;;;;;;5052117;28;20501;-65
2023/06/07 09:58:51;;;;;;;13.35;3.28;;;16.70;99.90;;;;;;5051454;28;20502;-65
2023/06/07 10:01:32;;;;;;;6.65;4.10;;;16.80;99.90;;;;;;5048662;28;20230;-65
2023/06/07 10:04:00;;;;;;;8.77;2.95;;;17.00;99.90;;;;;;5065747;28;20203;-65
2023/06/07 10:06:28;;;;;;;9.65;3.00;;;17.10;99.90;;;;;;5032637;28;20196;-65
2023/06/07 10:09:00;;;;;;;6.85;3.08;;;17.10;99.90;;;;;;5066620;28;20193;-66
2023/06/07 10:11:28;;;;;;;6.00;2.70;;;17.10;99.90;;;;;;5048259;28;20341;-65
2023/06/07 10:13:56;;;;;;;11.75;3.08;;;17.20;99.90;;;;;;5050676;28;20269;-65
2023/06/07 10:16:25;;;;;;;6.20;3.22;;;17.40;99.90;;;;;;5054029;28;20669;-65
2023/06/07 10:18:56;;;;;;;8.45;3.33;;;17.50;99.90;;;;;;5062910;28;20651;-65
2023/06/07 10:21:25;;;;;;;13.85;3.10;;;17.50;99.90;;;;;;5046819;28;20314;-65
2023/06/07 10:23:57;;;;;;;6.82;3.47;;;17.60;99.90;;;;;;5060000;28;20214;-65
2023/06/07 10:26:30;;;;;;;9.43;2.80;;;17.60;99.90;;;;;;5052710;28;20243;-65
2023/06/07 10:29:04;;;;;;;11.38;2.72;;;17.70;99.90;;;;;;5049024;28;20383;-65
2023/06/07 10:31:35;;;;;;;6.68;3.00;;;17.60;99.90;;;;;;5043590;28;20309;-65
2023/06/07 10:34:07;;;;;;;8.93;3.30;;;17.60;99.90;;;;;;5065087;28;20340;-65
2023/06/07 10:36:37;;;;;;;6.85;2.65;;;17.70;99.90;;;;;;5058938;28;20215;-65
2023/06/07 10:39:04;;;;;;;5.53;2.90;;;17.60;99.90;;;;;;5034423;28;20308;-65
2023/06/07 10:41:33;;;;;;;9.05;3.05;;;17.70;99.90;;;;;;5045091;28;20255;-65
2023/06/07 10:44:02;;;;;;;8.45;2.97;;;17.70;99.90;;;;;;5064341;28;20228;-65
2023/06/07 10:46:29;;;;;;;11.55;2.90;;;17.70;99.90;;;;;;5047991;28;20201;-65
2023/06/07 10:48:57;;;;;;;6.65;2.42;;;17.90;99.90;;;;;;5062747;28;20947;-65
2023/06/07 10:52:02;;;;;;;8.05;2.78;;;17.70;99.90;;;;;;5061111;28;20200;-65
2023/06/07 10:54:29;;;;;;;7.45;2.75;;;17.60;99.90;;;;;;5025855;28;20208;-65
2023/06/07 10:56:59;;;;;;;6.72;3.20;;;17.70;99.90;;;;;;5061050;28;20197;-65
2023/06/07 10:59:27;;;;;;;8.82;2.83;;;17.80;99.90;;;;;;5048225;28;20196;-65
2023/06/07 11:01:55;;;;;;;9.98;2.97;;;17.80;99.90;;;;;;5049508;28;20265;-65
2023/06/07 11:04:52;;;;;;;6.65;2.90;;;17.90;99.90;;;;;;5063281;28;20277;-65
2023/06/07 11:07:21;;;;;;;8.20;2.60;;;17.90;99.90;;;;;;5063419;28;20232;-65
2023/06/07 11:09:48;;;;;;;10.38;2.90;;;18.00;99.90;;;;;;5035882;28;20282;-64
2023/06/07 11:12:53;;;;;;;7.55;3.00;;;18.00;99.90;;;;;;5061203;28;20196;-65
2023/06/07 11:15:25;;;;;;;7.00;2.83;;;18.30;99.90;;;;;;5060636;28;20201;-65
2023/06/07 11:17:53;;;;;;;6.38;2.90;;;18.40;99.90;;;;;;5049913;28;20227;-65
2023/06/07 11:20:52;;;;;;;7.90;2.70;;;18.40;99.90;;;;;;5065536;28;20206;-65
2023/06/07 11:23:28;;;;;;;5.32;2.60;;;18.30;99.90;;;;;;5064553;28;20199;-65
2023/06/07 11:26:00;;;;;;;11.40;3.15;;;18.30;99.90;;;;;;5035536;28;20414;-65
2023/06/07 11:28:28;;;;;;;9.75;2.80;;;18.30;99.90;;;;;;5045427;28;20204;-65
2023/06/07 11:30:57;;;;;;;6.40;2.70;;;18.20;99.90;;;;;;5062322;28;20283;-65
2023/06/07 11:33:24;;;;;;;7.68;3.00;;;18.20;99.90;;;;;;5044568;28;20200;-65
2023/06/07 11:35:51;;;;;;;5.03;2.50;;;18.30;99.90;;;;;;5020285;28;20607;-65
2023/06/07 11:38:18;;;;;;;6.38;2.75;;;18.30;99.90;;;;;;5021536;28;20310;-65
2023/06/07 11:40:46;;;;;;;8.38;2.80;;;18.40;99.90;;;;;;5020650;28;20877;-65
2023/06/07 11:43:13;;;;;;;7.57;3.08;;;18.40;99.90;;;;;;4983054;28;20654;-65
2023/06/07 11:45:41;;;;;;;10.27;3.15;;;18.70;99.90;;;;;;5023181;28;20640;-65
2023/06/07 11:48:09;;;;;;;7.72;3.65;;;18.70;99.90;;;;;;5008846;28;20324;-65
2023/06/07 11:50:37;;;;;;;7.70;3.00;;;18.70;99.90;;;;;;5019445;28;21066;-65
2023/06/07 11:53:05;;;;;;;7.78;2.80;;;18.60;99.90;;;;;;5022506;28;20193;-65
2023/06/07 11:55:32;;;;;;;10.85;3.30;;;18.50;99.90;;;;;;5018439;28;21722;-65
2023/06/07 11:58:02;;;;;;;10.82;2.92;;;18.50;99.90;;;;;;4997978;28;20298;-65
2023/06/07 12:00:31;;;;;;;6.75;3.20;;;18.40;99.90;;;;;;4988887;28;20213;-65
2023/06/07 12:02:59;;;;;;;9.70;3.22;;;18.30;99.90;;;;;;4991243;28;20429;-65
2023/06/07 12:05:31;;;;;;;10.23;3.05;;;18.40;99.90;;;;;;5013388;28;20197;-65
2023/06/07 12:08:04;;;;;;;6.75;3.05;;;18.40;99.90;;;;;;5003886;28;20201;-65
2023/06/07 12:10:32;;;;;;;8.88;3.70;;;18.50;99.90;;;;;;5011361;28;20236;-65
2023/06/07 12:13:10;;;;;;;5.63;3.28;;;18.40;99.90;;;;;;4985539;28;20356;-65
2023/06/07 12:15:42;;;;;;;10.48;3.42;;;18.40;99.90;;;;;;5003424;28;20209;-65
2023/06/07 12:18:13;;;;;;;8.38;3.47;;;18.40;99.90;;;;;;5018126;28;20315;-66
2023/06/07 12:20:42;;;;;;;11.13;4.07;;;18.50;99.90;;;;;;5011603;28;20236;-65
2023/06/07 12:23:10;;;;;;;7.70;4.32;;;18.60;99.90;;;;;;5007486;28;20206;-65
2023/06/07 12:25:37;;;;;;;7.28;3.80;;;18.60;99.90;;;;;;5019700;28;20216;-65
2023/06/07 12:28:06;;;;;;;12.45;3.47;;;18.50;99.90;;;;;;4991725;28;20378;-65
2023/06/07 12:30:34;;;;;;;6.85;3.53;;;18.60;99.90;;;;;;5009582;28;20568;-65
2023/06/07 12:33:01;;;;;;;13.70;4.63;;;18.50;99.90;;;;;;5014177;28;20300;-65
2023/06/07 12:35:38;;;;;;;10.15;3.50;;;18.50;99.90;;;;;;5047345;28;21394;-65
2023/06/07 12:38:06;;;;;;;9.88;3.78;;;18.50;99.90;;;;;;5051152;28;20212;-65
2023/06/07 12:40:33;;;;;;;10.50;3.58;;;18.60;99.90;;;;;;5055605;28;20216;-65
2023/06/07 12:43:00;;;;;;;13.13;3.70;;;18.70;99.90;;;;;;5032263;28;20257;-65
2023/06/07 12:45:27;;;;;;;7.95;3.78;;;18.60;99.90;;;;;;5048613;28;20453;-64
2023/06/07 12:47:54;;;;;;;10.73;3.80;;;18.60;99.90;;;;;;5049659;28;20258;-65
2023/06/07 12:50:21;;;;;;;13.30;3.63;;;18.60;99.90;;;;;;5040043;28;20224;-65
2023/06/07 12:52:49;;;;;;;8.45;4.10;;;18.50;99.90;;;;;;5053924;28;20283;-65